Troy, NY

5:25 AM EDT on March 28, 2015 (GMT -0400)
Schenectady County | | Change Station
CLOSE
Current Station
Airport
Location: Schenectady,
Elevation: 377 ft
Nearby Weather Stations
Active Advisory: Special Statement

Elev 377 ft 42.85 °N, 73.93 °W | Updated 7 hours ago

Snow
Snow
24 °F
Feels Like 14 °F
N
11
Wind Variable Wind from NNW
Gusts 19 mph

Today
High -- | Low -- °F
--% Chance of Precip.
Yesterday
High -- | Low -- °F
Precip. -- in
6:44 AM 7:15 PM
First Quarter, 60% visible
Pressure 29.83 in
Visibility 10.0 miles
Clouds Overcast 4200 ft
Windchill 14 °F
Dew Point 17 °F
Humidity 75%
Rainfall 0.00 in
Snow Depth Not available.
UV 0 out of 12
Pollen 1.50 out of 12
Air Quality Not available.
Flu Activity Not available.
METAR KSCH 280155Z 29008KT 10SM OVC042 02/M05 A2983 RMK LAST

More Conditions Fewer Conditions

Pressure 29.83 in
Visibility 10.0 miles
Clouds Overcast 4200 ft
Windchill 14 °F
Dew Point 17 °F
Humidity 75%
Rainfall 0.00 in
Snow Depth Not available.
UV 0 out of 12
Pollen 1.50 out of 12
Air Quality Not available.
Flu Activity Not available.
METAR KSCH 280155Z 29008KT 10SM OVC042 02/M05 A2983 RMK LAST

More Conditions Fewer Conditions

10-Day Weather Forecast

Almanac

Astronomy

Mar. 28, 2015 Rise Set
Actual Time
Civil Twilight
Nautical Twilight
Astronomical Twilight
Moon
Length of Visible Light
Length of Day
Tomorrow will be .
, % of the Moon is Illuminated

Today's Extremes

State Highs State Lows

Community

WunderPhotos

Upload Photos

1,808,939 photos uploaded!

WunderBlogs® & News

Nearby

Air Quality

  Air Quality AQ Index Pollutant
Not available.

Snow Depth

Station Depth Elevation

Earthquake Activity

City Distance Mag. Time & Date
Minimum magnitude displayed is 2.5.

Coastal Water Temperatures

Place Temperature

Stations

Nearby Weather Stations

Station Location Temp. Windchill Dew Point Humidity Wind Precip. Elev Updated Type
                   
Special Statement
Statement as of 4:35 AM EDT on March 28, 2015

... Persistent areas of light snow and possible black ice will
make for a slick start to the day across Saratoga... eastern
Schenectady... northeast Albany and Rensselaer counties through
700 am...

Light snow will likely produce a little more light
accumulation... generally an inch or less in this area through 700
am. However... snow that has already fallen on roadways which has
partially melted... could turn to black ice. Black ice is even more
likely on sidewalks and walkways.

If you are traveling in this area by car or especially by
foot... exercise caution and allow a little extra time to reach
your destination.


Hwjiv